Terminal Aerodrome Forecast
Issued by NWS Atlanta, GA

Home | Current Version | Previous Version | Text Only | Print | Product List | Glossary On
Versions: 1 2 3 4 5 6 7 8 9 10 11 12 13 14 15 16 17
000
FTUS42 KFFC 291120
TAFCSG
TAF
KCSG 291120Z 2912/3012 10005KT P6SM VCSH SCT010 OVC150
     FM291500 12006KT P6SM -SHRA SCT030 OVC150
     FM291800 12007KT P6SM -SHRA BKN035 OVC120
     FM300000 09004KT P6SM VCSH BKN040 OVC100=

USA.gov is the U.S. government's official web portal to all federal, state and local government web resources and services.